Time;durP1;ratioP1;P1;durP2;ratioP2;P2;SDS_P1;SDS_P2;PMS_P1;PMS_P2;Temp;Humidity;BMP_temperature;BMP_pressure;BME280_temperature;BME280_humidity;BME280_pressure;Samples;Min_cycle;Max_cycle;Signal;HPM_P1;HPM_P2
2023/04/08 00:00:17;;;;;;;33.80;13.63;;;;;;;7.79;100.00;102328.47;6188237;23;20101;-77
2023/04/08 00:02:44;;;;;;;24.25;14.10;;;;;;;7.80;100.00;102327.34;6189258;23;20013;-77
2023/04/08 00:05:11;;;;;;;30.13;13.88;;;;;;;7.82;100.00;102332.25;6188010;23;20780;-77
2023/04/08 00:07:37;;;;;;;29.02;13.48;;;;;;;7.82;100.00;102329.59;6189233;23;20033;-77
2023/04/08 00:10:05;;;;;;;25.88;13.82;;;;;;;7.82;100.00;102333.00;6188831;23;20440;-77
2023/04/08 00:12:32;;;;;;;38.63;14.40;;;;;;;7.79;100.00;102335.66;6189284;23;20014;-76
2023/04/08 00:14:59;;;;;;;55.83;13.75;;;;;;;7.77;100.00;102333.38;6188652;23;20387;-76
2023/04/08 00:17:25;;;;;;;23.85;12.63;;;;;;;7.76;100.00;102339.06;6186954;23;20017;-77
2023/04/08 00:19:52;;;;;;;30.27;13.65;;;;;;;7.73;100.00;102339.84;6188883;23;20087;-77
2023/04/08 00:22:19;;;;;;;27.45;11.93;;;;;;;7.71;100.00;102337.56;6188308;23;20020;-76
2023/04/08 00:24:45;;;;;;;32.05;12.90;;;;;;;7.68;100.00;102336.44;6189176;23;20018;-76
2023/04/08 00:27:12;;;;;;;47.33;13.35;;;;;;;7.67;100.00;102342.09;6188261;23;20021;-76
2023/04/08 00:29:38;;;;;;;79.68;12.40;;;;;;;7.61;100.00;102333.03;6188986;23;20022;-78
2023/04/08 00:32:05;;;;;;;36.33;12.70;;;;;;;7.58;100.00;102328.50;6186634;23;20025;-76
2023/04/08 00:34:31;;;;;;;165.38;13.55;;;;;;;7.54;100.00;102333.06;6186797;23;20029;-79
2023/04/08 00:36:58;;;;;;;137.93;13.93;;;;;;;7.53;100.00;102331.53;6188692;23;20098;-76
2023/04/08 00:39:25;;;;;;;41.42;13.45;;;;;;;7.52;100.00;102324.72;6187235;23;20021;-76
2023/04/08 00:41:53;;;;;;;127.38;13.80;;;;;;;7.52;100.00;102338.72;6186652;23;20384;-78
2023/04/08 00:44:20;;;;;;;79.95;12.55;;;;;;;7.48;100.00;102340.63;6185964;23;20081;-78
2023/04/08 00:46:47;;;;;;;25.63;12.68;;;;;;;7.50;100.00;102345.53;6187591;23;20020;-78
2023/04/08 00:49:14;;;;;;;49.53;12.07;;;;;;;7.52;100.00;102345.91;6186089;23;20029;-78
2023/04/08 00:51:41;;;;;;;36.15;12.55;;;;;;;7.50;100.00;102348.94;6189074;23;20013;-78
2023/04/08 00:54:07;;;;;;;81.00;13.30;;;;;;;7.47;100.00;102346.28;6189668;23;20037;-77
2023/04/08 00:56:34;;;;;;;60.60;11.63;;;;;;;7.45;100.00;102343.25;6189037;23;20049;-78
2023/04/08 00:59:03;;;;;;;29.27;11.80;;;;;;;7.40;100.00;102347.03;6188352;23;20131;-78
2023/04/08 01:01:35;;;;;;;47.35;11.57;;;;;;;7.40;100.00;102344.41;6186991;23;20022;-78
2023/04/08 01:04:33;;;;;;;51.90;10.57;;;;;;;7.41;100.00;102351.22;6187812;23;20089;-78
2023/04/08 01:07:14;;;;;;;16.02;11.48;;;;;;;7.41;100.00;102345.91;6188586;23;20093;-78
2023/04/08 01:09:51;;;;;;;44.92;10.98;;;;;;;7.40;100.00;102355.00;6188903;23;20022;-78
2023/04/08 01:12:26;;;;;;;107.05;11.48;;;;;;;7.39;100.00;102360.66;6187524;23;20014;-78
2023/04/08 01:14:58;;;;;;;22.25;10.52;;;;;;;7.38;100.00;102351.22;6162892;23;20273;-78
2023/04/08 01:17:25;;;;;;;130.85;12.52;;;;;;;7.35;100.00;102355.38;6185819;23;20018;-78
2023/04/08 01:19:56;;;;;;;74.93;12.02;;;;;;;7.35;100.00;102358.00;6189030;23;20022;-78
2023/04/08 01:22:53;;;;;;;40.88;11.98;;;;;;;7.35;100.00;102364.06;6188165;23;20014;-78
2023/04/08 01:25:26;;;;;;;41.97;11.48;;;;;;;7.30;100.00;102355.75;6164667;23;20013;-78
2023/04/08 01:27:56;;;;;;;17.52;11.10;;;;;;;7.26;100.00;102358.38;6189553;23;20465;-78
2023/04/08 01:30:24;;;;;;;25.33;11.38;;;;;;;7.26;100.00;102363.69;6188306;23;20022;-78
2023/04/08 01:32:58;;;;;;;45.25;12.35;;;;;;;7.24;100.00;102351.94;6185994;23;20065;-78
2023/04/08 01:35:25;;;;;;;34.80;11.15;;;;;;;7.20;100.00;102351.94;6186332;23;20080;-78
2023/04/08 01:37:53;;;;;;;89.18;11.55;;;;;;;7.18;100.00;102359.53;6186941;23;20045;-78
2023/04/08 01:40:21;;;;;;;24.80;10.45;;;;;;;7.14;100.00;102364.06;6187881;23;20017;-78
2023/04/08 01:42:49;;;;;;;129.55;11.75;;;;;;;7.15;100.00;102362.16;6188211;23;20038;-78
2023/04/08 01:45:17;;;;;;;135.73;10.68;;;;;;;7.05;100.00;102361.00;6186338;23;20081;-78
2023/04/08 01:47:47;;;;;;;42.63;10.40;;;;;;;7.05;100.00;102368.19;6186935;23;20029;-78
2023/04/08 01:50:15;;;;;;;57.80;9.63;;;;;;;7.03;100.00;102369.31;6188130;23;20021;-78
2023/04/08 01:52:43;;;;;;;29.15;9.65;;;;;;;7.03;100.00;102365.91;6186699;23;20056;-78
2023/04/08 01:55:11;;;;;;;14.98;9.25;;;;;;;7.03;100.00;102377.28;6210887;23;20474;-78
2023/04/08 01:57:40;;;;;;;32.85;8.90;;;;;;;7.04;100.00;102367.44;6189928;23;20018;-77
2023/04/08 02:00:09;;;;;;;51.38;9.18;;;;;;;6.95;100.00;102370.44;6187073;23;20064;-78
2023/04/08 02:02:51;;;;;;;49.63;8.80;;;;;;;6.92;100.00;102379.13;6189480;23;20092;-78
2023/04/08 02:05:18;;;;;;;16.27;8.32;;;;;;;6.92;100.00;102368.53;6189387;23;20415;-77
2023/04/08 02:07:46;;;;;;;19.90;8.95;;;;;;;6.94;100.00;102366.28;6188034;23;20455;-78
2023/04/08 02:10:14;;;;;;;19.10;8.38;;;;;;;6.91;100.00;102355.66;6187193;23;20447;-78
2023/04/08 02:12:42;;;;;;;10.48;8.57;;;;;;;6.90;100.00;102356.81;6188273;23;20538;-78
2023/04/08 02:15:11;;;;;;;11.07;8.95;;;;;;;6.91;100.00;102359.06;6186902;23;20022;-78
2023/04/08 02:17:44;;;;;;;14.13;9.10;;;;;;;6.95;100.00;102361.75;6189193;23;20414;-78
2023/04/08 02:20:17;;;;;;;17.17;9.30;;;;;;;6.94;100.00;102363.63;6189965;23;20094;-78
2023/04/08 02:23:06;;;;;;;25.42;9.82;;;;;;;6.95;100.00;102361.75;6188170;23;20497;-78
2023/04/08 02:25:36;;;;;;;53.20;9.02;;;;;;;6.94;100.00;102363.63;6189732;23;20025;-78
2023/04/08 02:28:05;;;;;;;55.83;9.90;;;;;;;6.92;100.00;102373.06;6189669;23;20018;-78
2023/04/08 02:30:34;;;;;;;18.30;9.32;;;;;;;6.90;100.00;102370.03;6189216;23;20096;-78
2023/04/08 02:33:04;;;;;;;20.17;9.00;;;;;;;6.90;100.00;102373.44;6189275;23;20395;-78
2023/04/08 02:35:31;;;;;;;34.72;9.52;;;;;;;6.89;100.00;102374.56;6190513;23;20055;-78
2023/04/08 02:37:58;;;;;;;80.75;9.77;;;;;;;6.89;100.00;102376.47;6187411;23;20049;-78
2023/04/08 02:40:32;;;;;;;98.72;10.15;;;;;;;6.82;100.00;102371.91;6189408;23;20025;-78
2023/04/08 02:42:59;;;;;;;35.50;9.45;;;;;;;6.80;100.00;102373.44;6188909;23;20434;-78
2023/04/08 02:45:30;;;;;;;22.45;9.45;;;;;;;6.81;100.00;102377.56;6188938;23;20017;-78
2023/04/08 02:47:59;;;;;;;24.92;8.70;;;;;;;6.82;100.00;102376.44;6187583;23;20025;-78
2023/04/08 02:50:26;;;;;;;49.45;9.32;;;;;;;6.80;100.00;102381.38;6190059;23;20084;-78
2023/04/08 02:52:52;;;;;;;27.95;9.57;;;;;;;6.77;100.00;102387.41;6189580;23;20426;-78
2023/04/08 02:55:19;;;;;;;26.98;8.90;;;;;;;6.73;100.00;102384.75;6186914;23;20109;-78
2023/04/08 02:57:47;;;;;;;25.20;9.32;;;;;;;6.72;100.00;102390.41;6189600;23;20322;-78
2023/04/08 03:00:14;;;;;;;61.03;9.35;;;;;;;6.66;100.00;102385.47;6188215;23;20048;-78
2023/04/08 03:02:41;;;;;;;24.77;9.18;;;;;;;6.65;100.00;102386.59;6189515;23;20020;-78
2023/04/08 03:05:08;;;;;;;34.35;9.10;;;;;;;6.60;100.00;102388.84;6188862;23;20072;-78
2023/04/08 03:07:35;;;;;;;19.40;9.15;;;;;;;6.59;100.00;102387.31;6190798;23;20018;-78
2023/04/08 03:10:02;;;;;;;37.03;10.20;;;;;;;6.61;100.00;102396.41;6189376;23;20456;-78
2023/04/08 03:12:28;;;;;;;26.13;9.82;;;;;;;6.56;100.00;102399.41;6189240;23;20014;-78
2023/04/08 03:14:55;;;;;;;30.98;11.02;;;;;;;6.55;100.00;102397.13;6188798;23;20014;-78
2023/04/08 03:17:21;;;;;;;18.38;10.25;;;;;;;6.55;100.00;102391.84;6187407;23;20024;-78
2023/04/08 03:19:48;;;;;;;11.48;9.85;;;;;;;6.54;100.00;102395.63;6189726;23;20366;-78
2023/04/08 03:22:15;;;;;;;30.98;10.38;;;;;;;6.56;100.00;102394.13;6187301;23;20427;-78
2023/04/08 03:24:41;;;;;;;23.75;11.15;;;;;;;6.47;100.00;102391.03;6190898;23;20018;-78
2023/04/08 03:27:08;;;;;;;44.78;12.57;;;;;;;6.45;100.00;102390.66;6188665;23;20014;-78
2023/04/08 03:29:34;;;;;;;24.58;11.40;;;;;;;6.46;100.00;102388.78;6188915;23;20084;-77
2023/04/08 03:32:01;;;;;;;16.20;12.43;;;;;;;6.46;100.00;102389.53;6189154;23;20024;-78
2023/04/08 03:34:28;;;;;;;19.92;12.05;;;;;;;6.48;100.00;102394.44;6189498;23;20014;-78
2023/04/08 03:36:54;;;;;;;40.95;11.05;;;;;;;6.42;100.00;102383.47;6189254;23;20060;-78
2023/04/08 03:39:21;;;;;;;34.13;11.65;;;;;;;6.40;100.00;102385.72;6189662;23;20018;-77
2023/04/08 03:41:47;;;;;;;24.77;11.88;;;;;;;6.38;100.00;102395.94;6189300;23;20013;-78
2023/04/08 03:44:15;;;;;;;50.42;12.73;;;;;;;6.34;100.00;102395.91;6186374;23;20022;-78
2023/04/08 03:46:41;;;;;;;34.55;12.70;;;;;;;6.34;100.00;102395.91;6189388;23;20021;-78
2023/04/08 03:49:08;;;;;;;56.55;13.15;;;;;;;6.26;100.00;102399.63;6186966;23;20075;-77
2023/04/08 03:51:34;;;;;;;61.63;12.90;;;;;;;6.19;100.00;102401.47;6189396;23;20025;-78
2023/04/08 03:54:01;;;;;;;41.15;13.18;;;;;;;6.16;100.00;102397.69;6189161;23;20443;-78
2023/04/08 03:56:27;;;;;;;42.42;13.65;;;;;;;6.16;100.00;102399.56;6188937;23;20021;-77
2023/04/08 03:58:54;;;;;;;58.38;14.25;;;;;;;6.18;100.00;102405.25;6189719;23;20017;-78
2023/04/08 04:01:20;;;;;;;22.55;14.48;;;;;;;6.17;100.00;102404.50;6188928;23;20057;-78
2023/04/08 04:03:47;;;;;;;36.65;14.02;;;;;;;6.17;100.00;102407.13;6188014;23;20466;-78
2023/04/08 04:06:14;;;;;;;32.75;13.93;;;;;;;6.14;100.00;102407.88;6186930;23;20041;-78
2023/04/08 04:08:40;;;;;;;21.92;15.35;;;;;;;6.17;100.00;102415.06;6187743;23;20467;-78
2023/04/08 04:11:07;;;;;;;30.77;14.02;;;;;;;6.14;100.00;102423.72;6188922;23;20458;-78
2023/04/08 04:13:34;;;;;;;53.65;13.20;;;;;;;6.10;100.00;102419.53;6191098;23;20013;-78
2023/04/08 04:16:00;;;;;;;60.40;12.55;;;;;;;6.06;100.00;102419.50;6188476;23;20018;-78
2023/04/08 04:18:27;;;;;;;19.58;13.20;;;;;;;6.01;100.00;102423.25;6188421;23;20018;-77
2023/04/08 04:20:53;;;;;;;17.65;13.73;;;;;;;5.98;100.00;102436.47;6188473;23;20178;-78
2023/04/08 04:23:20;;;;;;;17.52;13.00;;;;;;;5.97;100.00;102435.72;6188458;23;20447;-78
2023/04/08 04:25:46;;;;;;;18.55;13.77;;;;;;;5.99;100.00;102440.63;6189216;23;20021;-78
2023/04/08 04:28:13;;;;;;;18.13;13.80;;;;;;;5.97;100.00;102448.19;6188009;23;20416;-78
2023/04/08 04:30:39;;;;;;;17.33;13.73;;;;;;;5.95;100.00;102439.84;6189840;23;20033;-78
2023/04/08 04:33:06;;;;;;;20.23;13.45;;;;;;;5.94;100.00;102444.38;6188611;23;20076;-77
2023/04/08 04:35:33;;;;;;;18.80;13.70;;;;;;;5.94;100.00;102441.72;6189001;23;20017;-77
2023/04/08 04:38:00;;;;;;;18.95;14.20;;;;;;;5.89;100.00;102447.34;6188430;23;20531;-77
2023/04/08 04:40:26;;;;;;;18.77;14.23;;;;;;;5.88;100.00;102456.38;6188009;23;20052;-78
2023/04/08 04:42:53;;;;;;;20.38;13.93;;;;;;;5.83;100.00;102456.72;6188674;23;20022;-77
2023/04/08 04:45:20;;;;;;;20.27;13.65;;;;;;;5.81;100.00;102460.84;6190372;23;20444;-77
2023/04/08 04:47:46;;;;;;;19.13;14.18;;;;;;;5.80;100.00;102451.38;6189086;23;20096;-78
2023/04/08 04:50:13;;;;;;;16.98;13.82;;;;;;;5.76;100.00;102461.94;6188490;23;20026;-77
2023/04/08 04:52:40;;;;;;;18.33;13.35;;;;;;;5.74;100.00;102469.47;6189082;23;20014;-78
2023/04/08 04:55:07;;;;;;;20.30;13.45;;;;;;;5.71;100.00;102470.19;6186253;23;20068;-77
2023/04/08 04:57:33;;;;;;;20.00;13.48;;;;;;;5.69;100.00;102469.78;6162398;23;20026;-77
2023/04/08 05:00:00;;;;;;;23.73;12.75;;;;;;;5.62;100.00;102469.72;6189792;23;20448;-78
2023/04/08 05:02:31;;;;;;;16.90;13.07;;;;;;;5.57;100.00;102473.47;6189735;23;20022;-78
2023/04/08 05:04:57;;;;;;;23.90;12.80;;;;;;;5.56;100.00;102477.22;6188521;23;20092;-77
2023/04/08 05:07:24;;;;;;;19.75;12.85;;;;;;;5.53;100.00;102477.19;6186330;23;20017;-77
2023/04/08 05:09:50;;;;;;;16.63;12.93;;;;;;;5.52;100.00;102487.00;6188056;23;20017;-78
2023/04/08 05:12:19;;;;;;;17.08;12.77;;;;;;;5.43;100.00;102486.53;6188008;23;20423;-78
2023/04/08 05:14:45;;;;;;;29.63;13.35;;;;;;;5.42;100.00;102485.00;6188857;23;20037;-78
2023/04/08 05:17:12;;;;;;;17.85;12.40;;;;;;;5.36;100.00;102486.44;6189284;23;20056;-77
2023/04/08 05:19:38;;;;;;;22.35;12.07;;;;;;;5.31;100.00;102487.50;6188760;23;20450;-77
2023/04/08 05:22:05;;;;;;;52.28;12.27;;;;;;;5.29;100.00;102491.63;6187765;23;20017;-77
2023/04/08 05:24:31;;;;;;;43.78;13.25;;;;;;;5.26;100.00;102492.34;6188073;23;20020;-78
2023/04/08 05:26:58;;;;;;;16.35;13.10;;;;;;;5.29;100.00;102494.28;6188016;23;20077;-78
2023/04/08 05:29:25;;;;;;;25.02;12.63;;;;;;;5.30;100.00;102495.81;6188369;23;20013;-77
2023/04/08 05:31:51;;;;;;;30.50;12.98;;;;;;;5.28;100.00;102501.44;6190703;23;20018;-77
2023/04/08 05:34:21;;;;;;;17.15;12.30;;;;;;;5.29;100.00;102491.63;6189648;23;20084;-77
2023/04/08 05:36:52;;;;;;;29.65;12.30;;;;;;;5.32;100.00;102501.47;6189993;23;20026;-77
2023/04/08 05:39:19;;;;;;;32.35;12.25;;;;;;;5.36;100.00;102500.41;6186903;23;20049;-77
2023/04/08 05:41:45;;;;;;;15.32;12.13;;;;;;;5.45;100.00;102500.13;6188305;23;20207;-78
2023/04/08 05:44:15;;;;;;;17.52;12.38;;;;;;;5.43;99.81;102493.69;6188690;23;20408;-77
2023/04/08 05:46:41;;;;;;;14.57;11.32;;;;;;;5.44;99.65;102505.78;6189778;23;20023;-77
2023/04/08 05:49:08;;;;;;;14.38;11.18;;;;;;;5.42;99.22;102508.78;6191216;23;20013;-77
2023/04/08 05:51:34;;;;;;;13.50;11.55;;;;;;;5.42;99.30;102508.00;6189908;23;20019;-78
2023/04/08 05:54:01;;;;;;;16.98;11.20;;;;;;;5.44;98.91;102511.06;6188723;23;20459;-78
2023/04/08 05:56:27;;;;;;;16.05;11.35;;;;;;;5.59;98.68;102502.94;6189343;23;20029;-77
2023/04/08 05:58:54;;;;;;;13.05;10.40;;;;;;;5.67;97.90;102509.03;6189719;23;20427;-78
2023/04/08 06:01:21;;;;;;;13.60;11.35;;;;;;;5.87;98.33;102507.72;6187555;23;20084;-77
2023/04/08 06:03:47;;;;;;;15.35;11.93;;;;;;;7.62;94.79;102504.94;6189772;23;20014;-77
2023/04/08 06:06:14;;;;;;;15.95;10.90;;;;;;;9.34;85.48;102522.16;6190694;23;20455;-77
2023/04/08 06:08:41;;;;;;;11.93;10.48;;;;;;;10.69;78.62;102518.47;6189958;23;20024;-78
2023/04/08 06:11:07;;;;;;;12.88;10.50;;;;;;;11.50;72.04;102522.06;6188473;23;20021;-78
2023/04/08 06:13:34;;;;;;;11.18;9.95;;;;;;;12.06;69.02;102518.94;6189653;23;20444;-78
2023/04/08 06:16:10;;;;;;;10.70;9.57;;;;;;;12.41;68.04;102525.59;6189060;23;20826;-78
2023/04/08 06:18:37;;;;;;;11.63;9.98;;;;;;;12.43;64.55;102528.63;6189277;23;20438;-78
2023/04/08 06:21:05;;;;;;;11.52;10.32;;;;;;;12.53;63.88;102527.66;6190048;23;20084;-78
2023/04/08 06:23:31;;;;;;;12.48;9.63;;;;;;;12.39;63.00;102519.94;6189920;23;20014;-78
2023/04/08 06:25:58;;;;;;;11.15;9.70;;;;;;;12.29;63.64;102532.31;6190073;23;20042;-78
2023/04/08 06:28:25;;;;;;;10.02;9.07;;;;;;;12.14;63.07;102537.13;6190423;23;20040;-78
2023/04/08 06:30:51;;;;;;;10.93;9.77;;;;;;;11.86;63.37;102541.00;6190386;23;20435;-78
2023/04/08 06:33:18;;;;;;;12.32;9.60;;;;;;;11.51;63.73;102547.56;6189986;23;20029;-78
2023/04/08 06:35:47;;;;;;;11.15;10.00;;;;;;;11.21;64.73;102550.22;6190320;23;20077;-78
2023/04/08 06:38:14;;;;;;;10.70;9.60;;;;;;;10.80;66.64;102556.41;6190487;23;20085;-78
2023/04/08 06:40:40;;;;;;;10.80;9.70;;;;;;;10.34;67.21;102560.28;6190110;23;20444;-78
2023/04/08 06:43:07;;;;;;;11.30;10.07;;;;;;;9.88;69.17;102557.94;6188686;23;20020;-78
2023/04/08 06:45:37;;;;;;;14.07;9.27;;;;;;;9.64;70.61;102570.22;6188660;23;20453;-77
2023/04/08 06:48:05;;;;;;;10.95;9.25;;;;;;;9.55;70.50;102571.81;6190075;23;20366;-78
2023/04/08 06:50:32;;;;;;;11.15;9.82;;;;;;;9.41;72.39;102569.97;6190581;23;20013;-79
2023/04/08 06:52:59;;;;;;;13.65;10.23;;;;;;;9.28;71.84;102568.88;6189884;23;20013;-79
2023/04/08 06:55:25;;;;;;;12.15;9.75;;;;;;;9.22;71.40;102576.47;6190557;23;20021;-79
2023/04/08 06:57:52;;;;;;;11.88;9.93;;;;;;;9.11;72.18;102573.13;6188526;23;20029;-78
2023/04/08 07:00:19;;;;;;;11.25;10.18;;;;;;;9.18;72.39;102582.97;6190044;23;20017;-78
2023/04/08 07:02:45;;;;;;;11.13;10.02;;;;;;;9.08;71.68;102579.19;6190307;23;20069;-77
2023/04/08 07:05:12;;;;;;;11.57;9.43;;;;;;;8.90;72.45;102591.75;6190320;23;20025;-77
2023/04/08 07:07:39;;;;;;;11.32;9.57;;;;;;;8.94;73.42;102590.63;6190327;23;20025;-78
2023/04/08 07:10:06;;;;;;;11.20;10.05;;;;;;;8.91;72.82;102593.28;6189907;23;20394;-78
2023/04/08 07:12:36;;;;;;;10.85;9.85;;;;;;;9.04;73.09;102594.41;6190210;23;20045;-76
2023/04/08 07:15:02;;;;;;;10.55;9.55;;;;;;;9.07;72.13;102592.88;6189718;23;20021;-75
2023/04/08 07:17:29;;;;;;;10.35;9.35;;;;;;;9.08;72.04;102602.34;6190109;23;20018;-74
2023/04/08 07:19:55;;;;;;;10.77;9.77;;;;;;;9.10;71.38;102600.84;6189376;23;20065;-76
2023/04/08 07:22:22;;;;;;;10.65;9.52;;;;;;;9.13;72.25;102597.41;6190013;23;20013;-76
2023/04/08 07:24:48;;;;;;;12.32;9.75;;;;;;;9.24;72.54;102602.66;6190287;23;20298;-76
2023/04/08 07:27:16;;;;;;;10.38;9.40;;;;;;;9.27;71.58;102617.84;6189611;23;20442;-76
2023/04/08 07:29:42;;;;;;;10.70;9.35;;;;;;;9.25;70.85;102620.13;6190099;23;20443;-76
2023/04/08 07:32:09;;;;;;;10.35;9.25;;;;;;;9.28;69.90;102622.03;6189445;23;20478;-76
2023/04/08 07:34:35;;;;;;;10.65;9.73;;;;;;;9.42;71.03;102619.31;6189332;23;20018;-76
2023/04/08 07:37:02;;;;;;;14.20;9.70;;;;;;;9.49;69.31;102621.22;6189667;23;20017;-76
2023/04/08 07:39:28;;;;;;;10.70;9.20;;;;;;;9.55;69.48;102617.75;6190425;23;20081;-76
2023/04/08 07:41:55;;;;;;;10.95;9.70;;;;;;;9.66;69.11;102621.13;6189515;23;20018;-77
2023/04/08 07:44:21;;;;;;;11.30;10.15;;;;;;;9.70;68.34;102621.84;6190145;23;20024;-78
2023/04/08 07:46:50;;;;;;;10.15;9.15;;;;;;;9.75;67.53;102619.94;6188147;23;20028;-76
2023/04/08 07:49:17;;;;;;;9.98;9.07;;;;;;;9.83;68.61;102622.19;6189144;23;20021;-76
2023/04/08 07:51:43;;;;;;;10.60;9.57;;;;;;;9.92;67.60;102633.16;6190124;23;20013;-76
2023/04/08 07:54:16;;;;;;;10.68;9.57;;;;;;;10.03;67.81;102628.50;6189251;23;20420;-77
2023/04/08 07:56:43;;;;;;;10.25;9.25;;;;;;;10.08;67.23;102622.03;6189680;23;20027;-77
2023/04/08 07:59:10;;;;;;;11.68;9.10;;;;;;;10.18;67.63;102623.09;6190458;23;20017;-77
2023/04/08 08:01:37;;;;;;;9.95;9.02;;;;;;;10.24;66.98;102619.69;6189824;23;20014;-76
2023/04/08 08:04:04;;;;;;;10.63;9.18;;;;;;;10.26;66.14;102628.03;6188681;23;20024;-76
2023/04/08 08:06:31;;;;;;;9.93;9.02;;;;;;;10.44;66.60;102627.13;6189782;23;20093;-77
2023/04/08 08:08:58;;;;;;;10.30;9.40;;;;;;;10.52;66.86;102628.59;6189429;23;20467;-76
2023/04/08 08:11:28;;;;;;;10.15;8.93;;;;;;;10.56;65.62;102632.72;6189758;23;20014;-77
2023/04/08 08:13:55;;;;;;;9.23;8.38;;;;;;;10.65;64.90;102633.03;6189991;23;20084;-76
2023/04/08 08:16:26;;;;;;;11.10;9.35;;;;;;;10.67;64.70;102636.06;6189918;23;20469;-77
2023/04/08 08:18:52;;;;;;;9.90;8.90;;;;;;;10.74;64.93;102629.94;6189367;23;20045;-77
2023/04/08 08:21:19;;;;;;;11.23;9.20;;;;;;;10.86;64.46;102626.75;6189522;23;20404;-77
2023/04/08 08:23:46;;;;;;;10.05;9.15;;;;;;;10.98;64.54;102634.25;6188320;23;20022;-77
2023/04/08 08:26:12;;;;;;;10.48;9.50;;;;;;;11.05;63.71;102630.00;6189425;23;20076;-77
2023/04/08 08:28:39;;;;;;;16.23;9.68;;;;;;;11.13;65.21;102629.53;6189850;23;20097;-77
2023/04/08 08:31:05;;;;;;;10.40;9.30;;;;;;;11.21;64.69;102625.63;6189267;23;20013;-77
2023/04/08 08:33:32;;;;;;;10.15;9.23;;;;;;;11.31;62.90;102632.75;6189367;23;20025;-77
2023/04/08 08:35:59;;;;;;;10.73;9.43;;;;;;;11.43;63.82;102636.06;6189548;23;20078;-77
2023/04/08 08:38:28;;;;;;;10.02;9.10;;;;;;;11.43;63.40;102641.41;6189981;23;20024;-77
2023/04/08 08:40:56;;;;;;;10.95;9.82;;;;;;;11.48;63.47;102641.72;6187782;23;20105;-77
2023/04/08 08:43:23;;;;;;;10.60;9.50;;;;;;;11.58;64.08;102648.09;6189214;23;20029;-77
2023/04/08 08:45:50;;;;;;;11.65;9.40;;;;;;;11.77;64.37;102639.47;6189508;23;20418;-77
2023/04/08 08:48:17;;;;;;;11.07;9.85;;;;;;;11.93;64.06;102654.91;6189626;23;20018;-77
2023/04/08 08:50:44;;;;;;;11.15;9.82;;;;;;;11.94;62.11;102654.50;6188029;23;20037;-77
2023/04/08 08:53:10;;;;;;;11.20;10.05;;;;;;;12.10;62.55;102643.19;6189139;23;20387;-77
2023/04/08 08:55:38;;;;;;;10.65;9.57;;;;;;;12.13;62.35;102642.41;6189483;23;20014;-78
2023/04/08 08:58:26;;;;;;;10.68;9.57;;;;;;;12.18;61.54;102646.53;6187963;23;20021;-78
2023/04/08 09:00:53;;;;;;;11.10;10.18;;;;;;;12.28;61.49;102654.38;6189536;23;20019;-78
2023/04/08 09:03:21;;;;;;;11.48;10.38;;;;;;;12.35;61.04;102650.84;6189188;23;20022;-78
2023/04/08 09:05:57;;;;;;;11.13;10.02;;;;;;;12.47;60.81;102652.19;6190975;23;20021;-79
2023/04/08 09:08:32;;;;;;;11.07;9.88;;;;;;;12.56;59.81;102653.16;6192682;23;20020;-79
2023/04/08 09:11:18;;;;;;;12.10;9.95;;;;;;;12.66;59.44;102652.25;6192370;23;20018;-76
2023/04/08 09:13:45;;;;;;;10.38;9.40;;;;;;;12.67;59.04;102658.34;6191367;23;20138;-76
2023/04/08 09:16:15;;;;;;;10.57;9.55;;;;;;;12.67;58.95;102663.69;6192123;23;20726;-77
2023/04/08 09:18:44;;;;;;;12.63;9.70;;;;;;;12.76;58.95;102663.94;6193717;23;20514;-80
2023/04/08 09:21:13;;;;;;;13.13;9.85;;;;;;;12.81;59.15;102668.03;6192093;23;20096;-79
2023/04/08 09:23:50;;;;;;;10.48;9.38;;;;;;;13.08;59.72;102663.34;6193109;23;20400;-79
2023/04/08 09:26:23;;;;;;;10.73;9.73;;;;;;;13.09;59.18;102670.22;6192201;23;20013;-79
2023/04/08 09:29:07;;;;;;;11.85;10.50;;;;;;;13.13;59.36;102670.16;6192793;23;20018;-80
2023/04/08 09:31:58;;;;;;;10.88;9.88;;;;;;;13.10;58.46;102666.38;6191996;23;20017;-79
2023/04/08 09:34:26;;;;;;;10.93;9.93;;;;;;;13.16;57.12;102678.13;6192902;23;20414;-79
2023/04/08 09:36:53;;;;;;;11.70;10.60;;;;;;;13.33;56.81;102678.94;6192650;23;20407;-80
2023/04/08 09:39:20;;;;;;;12.23;10.95;;;;;;;13.23;56.57;102677.97;6190317;23;20163;-79
2023/04/08 09:41:49;;;;;;;12.60;11.38;;;;;;;13.19;55.85;102685.34;6191545;23;20025;-79
2023/04/08 09:44:17;;;;;;;14.40;11.30;;;;;;;13.41;57.26;102677.66;6191629;23;20478;-80
2023/04/08 09:46:50;;;;;;;12.18;10.85;;;;;;;13.50;54.88;102677.88;6191896;23;20100;-80
2023/04/08 09:49:22;;;;;;;13.90;11.20;;;;;;;13.66;54.85;102679.81;6193115;23;20021;-79
2023/04/08 09:51:56;;;;;;;15.27;10.85;;;;;;;13.76;55.31;102670.81;6192411;23;20018;-79
2023/04/08 09:54:31;;;;;;;12.90;11.57;;;;;;;13.95;55.44;102674.66;6192139;23;20018;-79
2023/04/08 09:57:03;;;;;;;13.82;11.43;;;;;;;14.02;55.29;102677.91;6191999;23;20021;-79
2023/04/08 09:59:33;;;;;;;13.30;12.00;;;;;;;13.93;54.77;102674.31;6191899;23;20347;-79
2023/04/08 10:02:05;;;;;;;12.88;11.38;;;;;;;14.09;56.21;102685.03;6191564;23;20041;-79
2023/04/08 10:04:36;;;;;;;13.75;12.15;;;;;;;14.13;55.21;102672.31;6190281;23;20021;-79
2023/04/08 10:07:05;;;;;;;13.90;12.50;;;;;;;14.21;53.99;102672.91;6191716;23;20100;-79
2023/04/08 10:09:32;;;;;;;11.88;10.68;;;;;;;14.34;54.25;102673.75;6190413;23;20017;-79
2023/04/08 10:12:00;;;;;;;13.68;10.48;;;;;;;14.41;53.99;102678.19;6191619;23;20013;-78
2023/04/08 10:14:27;;;;;;;12.57;10.35;;;;;;;14.52;54.05;102668.00;6189259;23;20029;-77
2023/04/08 10:17:29;;;;;;;15.32;10.32;;;;;;;14.74;55.49;102663.63;6191313;23;20085;-78
2023/04/08 10:19:57;;;;;;;10.15;9.10;;;;;;;14.84;52.78;102664.50;6188092;23;20084;-79
2023/04/08 10:22:32;;;;;;;10.43;9.35;;;;;;;14.71;53.14;102664.47;6190033;23;20018;-79
2023/04/08 10:25:14;;;;;;;10.93;9.93;;;;;;;14.73;53.65;102670.16;6187895;23;20086;-76
2023/04/08 10:27:42;;;;;;;13.23;9.43;;;;;;;14.70;52.38;102664.88;6189853;23;20105;-76
2023/04/08 10:30:26;;;;;;;10.32;9.32;;;;;;;14.70;52.72;102662.19;6189144;23;20092;-75
2023/04/08 10:32:58;;;;;;;10.95;9.93;;;;;;;14.77;51.86;102662.78;6188437;23;20049;-76
2023/04/08 10:35:34;;;;;;;13.02;10.00;;;;;;;14.84;50.56;102657.22;6190509;23;20083;-78
2023/04/08 10:38:01;;;;;;;13.38;9.88;;;;;;;14.84;51.58;102662.56;6188239;23;20023;-77
2023/04/08 10:40:35;;;;;;;10.18;9.18;;;;;;;14.97;50.74;102662.63;6190096;23;20388;-76
2023/04/08 10:43:02;;;;;;;11.10;10.00;;;;;;;15.06;50.47;102664.72;6191681;23;20025;-79
2023/04/08 10:45:29;;;;;;;10.02;9.13;;;;;;;15.01;51.82;102664.06;6189938;23;20025;-78
2023/04/08 10:47:55;;;;;;;10.60;9.30;;;;;;;14.88;50.27;102673.22;6189838;23;20017;-79
2023/04/08 10:50:25;;;;;;;12.45;9.20;;;;;;;14.85;50.76;102666.75;6190211;23;20017;-78
2023/04/08 10:52:53;;;;;;;13.80;9.70;;;;;;;14.86;50.50;102665.59;6188336;23;20092;-79
2023/04/08 10:55:23;;;;;;;10.48;9.38;;;;;;;14.88;51.77;102665.91;6188218;23;20355;-79
2023/04/08 10:57:50;;;;;;;10.50;9.52;;;;;;;14.84;49.63;102661.81;6191570;23;20052;-79
2023/04/08 11:00:18;;;;;;;11.27;9.40;;;;;;;14.81;49.57;102654.63;6190017;23;20017;-81
2023/04/08 11:02:45;;;;;;;11.02;8.88;;;;;;;14.75;49.50;102648.28;6188155;23;20021;-79
2023/04/08 11:05:11;;;;;;;14.18;9.85;;;;;;;14.83;50.78;102654.94;6189693;23;20025;-80
2023/04/08 11:07:41;;;;;;;11.85;10.30;;;;;;;14.83;50.79;102655.72;6190039;23;20040;-81
2023/04/08 11:10:08;;;;;;;11.27;10.00;;;;;;;14.79;49.30;102657.00;6189778;23;20014;-79
2023/04/08 11:12:36;;;;;;;10.30;9.23;;;;;;;14.86;50.20;102652.19;6189292;23;20014;-79
2023/04/08 11:15:03;;;;;;;62.03;46.08;;;;;;;14.96;50.04;102651.16;6189217;23;20101;-79
2023/04/08 11:17:33;;;;;;;17.85;13.43;;;;;;;14.99;47.95;102649.56;6189822;23;20018;-78
2023/04/08 11:20:04;;;;;;;11.23;9.18;;;;;;;14.96;46.96;102650.41;6189725;23;20022;-79